Terminal Aerodrome Forecast
Issued by NWS

Home | Current Version | Previous Version | Text Only | Print | Product List | Glossary On
Versions: 1 2 3 4 5 6 7 8 9 10 11 12 13 14 15
000
FTUS46 KSEW 231734
TAFHQM
TAF
KHQM 231734Z 2318/2418 08006KT 6SM BR BKN100
     FM240300 03004KT P6SM SKC
     FM241100 04006KT 4SM BR SCT003
     FM241400 05006KT 1/2SM FG VV002=

USA.gov is the U.S. government's official web portal to all federal, state and local government web resources and services.